createdAt,value
2019-05-17T00:00:42.101Z,17.30
2019-05-17T00:03:08.911Z,18.15
2019-05-17T00:05:37.428Z,16.87
2019-05-17T00:08:04.324Z,18.82
2019-05-17T00:10:31.204Z,17.02
2019-05-17T00:12:57.992Z,17.92
2019-05-17T00:15:27.191Z,17.00
2019-05-17T00:17:53.475Z,17.37
2019-05-17T00:20:20.252Z,19.05
2019-05-17T00:22:49.001Z,17.10
2019-05-17T00:25:16.763Z,17.48
2019-05-17T00:27:43.937Z,18.92
2019-05-17T00:30:12.936Z,16.10
2019-05-17T00:32:39.776Z,14.47
2019-05-17T00:35:07.527Z,16.60
2019-05-17T00:37:34.501Z,17.55
2019-05-17T00:40:07.267Z,17.32
2019-05-17T00:42:34.313Z,16.97
2019-05-17T00:45:01.096Z,17.30
2019-05-17T00:47:27.933Z,14.10
2019-05-17T00:49:56.847Z,15.25
2019-05-17T00:52:24.249Z,16.40
2019-05-17T00:54:51.036Z,16.65
2019-05-17T00:57:17.873Z,18.40
2019-05-17T00:59:44.764Z,17.42
2019-05-17T01:02:11.598Z,18.00
2019-05-17T01:04:38.377Z,16.77
2019-05-17T01:07:06.907Z,17.98
2019-05-17T01:09:33.809Z,15.85
2019-05-17T01:12:00.708Z,16.10
2019-05-17T01:14:27.493Z,18.77
2019-05-17T01:16:56.349Z,17.40
2019-05-17T01:19:22.958Z,15.83
2019-05-17T01:21:49.736Z,17.23
2019-05-17T01:24:17.268Z,17.57
2019-05-17T01:26:46.716Z,17.57
2019-05-17T01:29:13.099Z,17.10
2019-05-17T01:31:39.877Z,17.55
2019-05-17T01:34:07.297Z,14.87
2019-05-17T01:36:36.864Z,16.67
2019-05-17T01:39:14.330Z,17.17
2019-05-17T01:41:32.604Z,17.67
2019-05-17T01:43:59.441Z,18.20
2019-05-17T01:46:26.665Z,17.27
2019-05-17T01:48:53.464Z,18.27
2019-05-17T01:51:20.248Z,17.75
2019-05-17T01:53:47.114Z,19.85
2019-05-17T01:56:13.844Z,19.12
2019-05-17T01:58:40.679Z,20.10
2019-05-17T02:01:07.826Z,17.62
2019-05-17T02:03:34.784Z,17.55
2019-05-17T02:06:01.630Z,17.45
2019-05-17T02:08:28.412Z,18.00
2019-05-17T02:10:57.246Z,17.63
2019-05-17T02:13:23.940Z,21.35
2019-05-17T02:15:51.264Z,20.00
2019-05-17T02:18:18.044Z,19.95
2019-05-17T02:20:46.418Z,20.37
2019-05-17T02:23:13.405Z,18.67
2019-05-17T02:25:40.184Z,17.60
2019-05-17T02:28:07.012Z,18.07
2019-05-17T02:30:34.054Z,17.75
2019-05-17T02:33:03.755Z,17.70
2019-05-17T02:35:33.342Z,18.85
2019-05-17T02:37:58.922Z,16.80
2019-05-17T02:40:25.736Z,17.33
2019-05-17T02:42:53.599Z,17.07
2019-05-17T02:45:23.406Z,19.20
2019-05-17T02:47:49.521Z,19.48
2019-05-17T02:50:17.285Z,18.82
2019-05-17T02:52:44.287Z,18.82
2019-05-17T02:55:12.808Z,18.42
2019-05-17T02:57:43.114Z,16.40
2019-05-17T03:00:13.409Z,17.92
2019-05-17T03:02:39.113Z,17.48
2019-05-17T03:05:06.491Z,17.57
2019-05-17T03:07:33.835Z,17.55
2019-05-17T03:10:16.500Z,16.30
2019-05-17T03:12:32.663Z,15.80
2019-05-17T03:14:58.096Z,15.25
2019-05-17T03:17:24.881Z,15.32
2019-05-17T03:19:52.908Z,15.08
2019-05-17T03:22:23.090Z,15.58
2019-05-17T03:24:49.343Z,14.53
2019-05-17T03:27:16.183Z,14.13
2019-05-17T03:29:43.025Z,15.70
2019-05-17T03:32:16.781Z,15.60
2019-05-17T03:34:38.926Z,15.45
2019-05-17T03:37:07.079Z,16.05
2019-05-17T03:39:34.401Z,17.23
2019-05-17T03:42:02.680Z,16.85
2019-05-17T03:44:32.964Z,14.85
2019-05-17T03:46:58.325Z,14.75
2019-05-17T03:49:25.157Z,14.35
2019-05-17T03:51:53.418Z,14.95
2019-05-17T03:54:22.608Z,15.10
2019-05-17T03:56:49.281Z,15.28
2019-05-17T03:59:16.115Z,14.47
2019-05-17T04:01:43.657Z,15.93
2019-05-17T04:04:13.217Z,15.90
2019-05-17T04:06:39.289Z,15.93
2019-05-17T04:09:06.969Z,17.87
2019-05-17T04:11:36.544Z,16.30
2019-05-17T04:14:03.108Z,16.57
2019-05-17T04:16:33.660Z,17.25
2019-05-17T04:18:58.838Z,16.15
2019-05-17T04:21:25.652Z,16.03
2019-05-17T04:23:53.777Z,17.20
2019-05-17T04:26:22.934Z,18.27
2019-05-17T04:28:52.972Z,17.80
2019-05-17T04:31:18.104Z,18.42
2019-05-17T04:33:45.733Z,19.77
2019-05-17T04:36:13.312Z,18.02
2019-05-17T04:38:43.337Z,18.20
2019-05-17T04:41:09.142Z,19.77
2019-05-17T04:43:35.981Z,19.30
2019-05-17T04:46:03.143Z,18.07
2019-05-17T04:48:32.611Z,19.77
2019-05-17T04:51:01.695Z,19.67
2019-05-17T04:53:27.600Z,20.00
2019-05-17T04:55:54.386Z,21.07
2019-05-17T04:58:23.279Z,20.60
2019-05-17T05:00:53.337Z,21.60
2019-05-17T05:03:18.520Z,22.32
2019-05-17T05:05:45.346Z,21.97
2019-05-17T05:08:13.026Z,22.02
2019-05-17T05:10:42.714Z,20.88
2019-05-17T05:13:08.785Z,20.05
2019-05-17T05:15:38.244Z,18.50
2019-05-17T05:18:05.025Z,17.40
2019-05-17T05:20:32.600Z,18.35
2019-05-17T05:23:02.366Z,16.37
2019-05-17T05:25:28.185Z,18.35
2019-05-17T05:27:55.017Z,16.32
2019-05-17T05:30:22.564Z,16.97
2019-05-17T05:32:49.345Z,15.70
2019-05-17T05:35:16.177Z,17.32
2019-05-17T05:37:42.962Z,16.10
2019-05-17T05:40:12.753Z,17.07
2019-05-17T05:42:42.264Z,16.77
2019-05-17T05:45:08.845Z,18.65
2019-05-17T05:47:35.628Z,18.42
2019-05-17T05:50:05.284Z,18.35
2019-05-17T05:52:32.475Z,19.27
2019-05-17T05:55:01.378Z,18.85
2019-05-17T05:57:27.996Z,17.95
2019-05-17T05:59:54.781Z,19.80
2019-05-17T06:02:21.859Z,17.45
2019-05-17T06:04:48.746Z,17.50
2019-05-17T06:07:15.529Z,17.00
2019-05-17T06:09:42.510Z,17.07
2019-05-17T06:12:22.706Z,16.50
2019-05-17T06:14:38.164Z,16.20
2019-05-17T06:17:05.001Z,16.80
2019-05-17T06:19:31.870Z,15.78
2019-05-17T06:21:58.665Z,14.58
2019-05-17T06:24:25.448Z,14.15
2019-05-17T06:26:52.654Z,13.40
2019-05-17T06:29:19.472Z,13.32
2019-05-17T06:31:46.322Z,12.40
2019-05-17T06:34:13.197Z,10.80
2019-05-17T06:36:42.103Z,10.30
2019-05-17T06:39:08.570Z,9.90
2019-05-17T06:41:35.408Z,9.80
2019-05-17T06:44:02.975Z,10.15
2019-05-17T06:46:32.318Z,10.38
2019-05-17T06:48:59.524Z,9.50
2019-05-17T06:51:26.364Z,9.70
2019-05-17T06:53:53.153Z,9.23
2019-05-17T06:56:19.993Z,9.50
2019-05-17T06:58:46.776Z,9.85
2019-05-17T07:01:13.625Z,10.05
2019-05-17T07:03:40.469Z,9.95
2019-05-17T07:06:10.959Z,10.55
2019-05-17T07:08:40.090Z,9.58
2019-05-17T07:11:06.345Z,10.20
2019-05-17T07:13:33.293Z,9.75
2019-05-17T07:16:00.076Z,9.95
2019-05-17T07:18:26.911Z,9.60
2019-05-17T07:20:53.693Z,9.35
2019-05-17T07:23:20.540Z,9.70
2019-05-17T07:25:47.378Z,9.25
2019-05-17T07:28:14.256Z,8.85
2019-05-17T07:30:41.109Z,9.85
2019-05-17T07:33:10.176Z,9.40
2019-05-17T07:35:36.544Z,8.45
2019-05-17T07:38:03.384Z,9.17
2019-05-17T07:40:30.420Z,8.65
2019-05-17T07:43:10.172Z,8.45
2019-05-17T07:45:25.992Z,9.50
2019-05-17T07:47:52.781Z,8.93
2019-05-17T07:50:20.828Z,8.50
2019-05-17T07:52:49.820Z,8.00
2019-05-17T07:55:16.344Z,9.13
2019-05-17T07:57:43.176Z,8.73
2019-05-17T08:00:10.744Z,8.90
2019-05-17T08:02:40.104Z,8.43
2019-05-17T08:05:06.597Z,8.75
2019-05-17T08:07:33.381Z,8.55
2019-05-17T08:10:00.415Z,9.80
2019-05-17T08:12:27.301Z,8.80
2019-05-17T08:14:54.156Z,8.60
2019-05-17T08:17:20.938Z,7.30
2019-05-17T08:19:49.770Z,8.58
2019-05-17T08:22:16.395Z,9.38
2019-05-17T08:24:43.213Z,9.38
2019-05-17T08:27:10.444Z,9.00
2019-05-17T08:29:37.440Z,8.80
2019-05-17T08:32:04.580Z,8.93
2019-05-17T08:34:31.376Z,9.10
2019-05-17T08:36:58.213Z,8.30
2019-05-17T08:39:25.001Z,8.80
2019-05-17T08:41:51.847Z,7.78
2019-05-17T08:44:19.222Z,8.38
2019-05-17T08:46:46.184Z,8.30
2019-05-17T08:49:13.066Z,8.03
2019-05-17T08:51:39.905Z,7.70
2019-05-17T08:54:07.074Z,6.50
2019-05-17T08:56:33.933Z,7.78
2019-05-17T08:59:00.959Z,7.05
2019-05-17T09:01:30.033Z,6.42
2019-05-17T09:03:56.544Z,6.95
2019-05-17T09:06:23.392Z,6.60
2019-05-17T09:08:50.192Z,5.95
2019-05-17T09:11:17.028Z,6.50
2019-05-17T09:13:54.578Z,6.45
2019-05-17T09:16:12.475Z,6.03
2019-05-17T09:18:39.537Z,5.58
2019-05-17T09:21:06.392Z,6.62
2019-05-17T09:23:33.240Z,6.40
2019-05-17T09:26:00.079Z,6.33
2019-05-17T09:28:26.856Z,6.75
2019-05-17T09:30:53.692Z,6.00
2019-05-17T09:33:20.545Z,6.60
2019-05-17T09:35:49.783Z,6.00
2019-05-17T09:38:15.975Z,5.42
2019-05-17T09:40:42.807Z,5.45
2019-05-17T09:43:10.155Z,5.37
2019-05-17T09:45:40.449Z,6.10
2019-05-17T09:48:07.216Z,6.30
2019-05-17T09:50:34.000Z,5.40
2019-05-17T09:53:00.849Z,4.95
2019-05-17T09:55:29.971Z,4.50
2019-05-17T09:57:56.276Z,4.80
2019-05-17T10:00:23.837Z,5.75
2019-05-17T10:02:50.993Z,5.95
2019-05-17T10:05:20.305Z,6.70
2019-05-17T10:07:47.185Z,6.85
2019-05-17T10:10:14.534Z,7.53
2019-05-17T10:12:41.417Z,7.10
2019-05-17T10:15:10.074Z,7.17
2019-05-17T10:17:36.965Z,7.00
2019-05-17T10:20:05.148Z,7.35
2019-05-17T10:22:31.992Z,6.40
2019-05-17T10:25:00.329Z,7.40
2019-05-17T10:27:27.408Z,7.00
2019-05-17T10:29:54.193Z,7.10
2019-05-17T10:32:21.068Z,6.80
2019-05-17T10:34:49.541Z,6.72
2019-05-17T10:37:16.473Z,5.90
2019-05-17T10:39:43.301Z,5.80
2019-05-17T10:42:10.149Z,6.20
2019-05-17T10:44:46.193Z,5.62
2019-05-17T10:47:05.622Z,5.80
2019-05-17T10:49:32.409Z,6.03
2019-05-17T10:51:59.972Z,4.87
2019-05-17T10:54:29.958Z,5.65
2019-05-17T10:56:55.670Z,5.10
2019-05-17T10:59:22.628Z,5.08
2019-05-17T11:01:50.317Z,4.78
2019-05-17T11:04:19.640Z,4.40
2019-05-17T11:06:46.144Z,4.50
2019-05-17T11:09:16.117Z,4.67
2019-05-17T11:11:43.087Z,5.10
2019-05-17T11:14:10.020Z,5.17
2019-05-17T11:16:36.980Z,4.60
2019-05-17T11:19:03.889Z,4.03
2019-05-17T11:21:30.908Z,4.37
2019-05-17T11:23:57.828Z,4.92
2019-05-17T11:26:24.622Z,4.50
2019-05-17T11:28:51.416Z,4.50
2019-05-17T11:31:18.269Z,4.97
2019-05-17T11:33:45.028Z,5.47
2019-05-17T11:36:11.872Z,4.85
2019-05-17T11:38:38.701Z,4.83
2019-05-17T11:41:20.018Z,5.10
2019-05-17T11:43:34.192Z,4.70
2019-05-17T11:46:01.033Z,4.37
2019-05-17T11:48:27.872Z,3.95
2019-05-17T11:50:55.225Z,4.42
2019-05-17T11:53:22.211Z,3.50
2019-05-17T11:55:49.109Z,3.33
2019-05-17T11:58:15.905Z,4.00
2019-05-17T12:00:42.951Z,3.80
2019-05-17T12:03:09.776Z,4.30
2019-05-17T12:05:36.625Z,3.50
2019-05-17T12:08:03.418Z,3.50
2019-05-17T12:10:30.498Z,3.58
2019-05-17T12:12:57.323Z,3.47
2019-05-17T12:15:24.168Z,3.70
2019-05-17T12:17:51.253Z,3.20
2019-05-17T12:20:18.392Z,3.10
2019-05-17T12:22:45.237Z,2.70
2019-05-17T12:25:12.533Z,2.80
2019-05-17T12:27:39.330Z,3.40
2019-05-17T12:30:08.699Z,3.10
2019-05-17T12:32:35.482Z,2.77
2019-05-17T12:35:02.592Z,2.80
2019-05-17T12:37:29.395Z,2.75
2019-05-17T12:39:56.340Z,2.80
2019-05-17T12:42:23.136Z,2.55
2019-05-17T12:44:49.969Z,2.27
2019-05-17T12:47:16.749Z,2.50
2019-05-17T12:49:43.614Z,2.60
2019-05-17T12:52:10.433Z,2.10
2019-05-17T12:54:37.272Z,2.10
2019-05-17T12:57:04.932Z,2.00
2019-05-17T12:59:31.897Z,2.00
2019-05-17T13:01:58.732Z,2.00
2019-05-17T13:04:25.569Z,2.00
2019-05-17T13:06:52.409Z,2.27
2019-05-17T13:09:19.195Z,2.20
2019-05-17T13:11:46.026Z,1.67
2019-05-17T13:14:13.106Z,2.00
2019-05-17T13:16:39.943Z,2.00
2019-05-17T13:19:06.778Z,1.92
2019-05-17T13:21:33.563Z,3.35
2019-05-17T13:24:00.393Z,2.10
2019-05-17T13:26:27.205Z,2.02
2019-05-17T13:28:54.036Z,1.80
2019-05-17T13:31:20.922Z,1.82
2019-05-17T13:33:47.764Z,2.10
2019-05-17T13:36:14.589Z,2.10
2019-05-17T13:38:41.435Z,1.80
2019-05-17T13:41:08.281Z,1.85
2019-05-17T13:43:35.097Z,1.70
2019-05-17T13:46:02.683Z,1.70
2019-05-17T13:48:29.546Z,1.40
2019-05-17T13:50:56.373Z,1.50
2019-05-17T13:53:23.162Z,1.20
2019-05-17T13:55:50.002Z,1.70
2019-05-17T13:58:16.847Z,1.55
2019-05-17T14:00:44.182Z,1.55
2019-05-17T14:03:10.925Z,1.80
2019-05-17T14:05:37.902Z,1.53
2019-05-17T14:08:04.669Z,1.80
2019-05-17T14:10:32.247Z,1.60
2019-05-17T14:12:59.208Z,1.70
2019-05-17T14:15:26.005Z,1.90
2019-05-17T14:17:52.888Z,1.70
2019-05-17T14:20:19.863Z,1.90
2019-05-17T14:22:46.811Z,1.80
2019-05-17T14:25:14.253Z,1.60
2019-05-17T14:27:41.029Z,2.00
2019-05-17T14:30:08.474Z,2.00
2019-05-17T14:32:35.265Z,2.20
2019-05-17T14:35:02.155Z,2.20
2019-05-17T14:37:29.065Z,1.70
2019-05-17T14:39:55.846Z,1.70
2019-05-17T14:42:22.690Z,2.20
2019-05-17T14:44:49.569Z,2.20
2019-05-17T14:47:16.365Z,2.17
2019-05-17T14:49:43.188Z,2.10
2019-05-17T14:52:10.278Z,2.05
2019-05-17T14:54:37.125Z,2.20
2019-05-17T14:57:03.908Z,2.60
2019-05-17T14:59:30.703Z,1.90
2019-05-17T15:01:57.542Z,2.20
2019-05-17T15:04:24.329Z,1.62
2019-05-17T15:06:51.168Z,1.70
2019-05-17T15:09:17.957Z,1.90
2019-05-17T15:11:44.797Z,1.80
2019-05-17T15:14:11.576Z,2.00
2019-05-17T15:16:38.412Z,1.92
2019-05-17T15:19:05.188Z,1.55
2019-05-17T15:21:32.188Z,1.45
2019-05-17T15:23:58.958Z,1.80
2019-05-17T15:26:25.793Z,1.60
2019-05-17T15:28:52.629Z,1.80
2019-05-17T15:31:19.521Z,1.50
2019-05-17T15:33:46.402Z,1.67
2019-05-17T15:36:13.261Z,1.67
2019-05-17T15:38:40.083Z,1.50
2019-05-17T15:41:07.032Z,1.70
2019-05-17T15:43:33.868Z,2.00
2019-05-17T15:46:00.764Z,1.82
2019-05-17T15:48:27.584Z,1.85
2019-05-17T15:50:54.422Z,3.58
2019-05-17T15:53:21.610Z,2.42
2019-05-17T15:55:48.569Z,1.60
2019-05-17T15:58:15.353Z,1.40
2019-05-17T16:00:42.397Z,2.12
2019-05-17T16:03:09.136Z,1.90
2019-05-17T16:05:35.941Z,1.63
2019-05-17T16:08:02.861Z,1.40
2019-05-17T16:10:29.642Z,1.15
2019-05-17T16:13:02.488Z,1.47
2019-05-17T16:15:25.093Z,1.60
2019-05-17T16:17:51.918Z,1.90
2019-05-17T16:20:18.755Z,1.40
2019-05-17T16:22:46.322Z,1.45
2019-05-17T16:25:13.400Z,1.25
2019-05-17T16:27:40.231Z,1.30
2019-05-17T16:30:07.521Z,2.20
2019-05-17T16:32:34.365Z,1.50
2019-05-17T16:35:01.204Z,1.60
2019-05-17T16:37:29.087Z,1.40
2019-05-17T16:39:55.944Z,1.80
2019-05-17T16:42:22.823Z,1.60
2019-05-17T16:44:49.617Z,1.70
2019-05-17T16:47:16.468Z,1.77
2019-05-17T16:49:43.284Z,1.60
2019-05-17T16:52:10.065Z,1.50
2019-05-17T16:54:36.905Z,1.60
2019-05-17T16:57:03.689Z,1.35
2019-05-17T16:59:30.537Z,1.40
2019-05-17T17:01:57.368Z,1.40
2019-05-17T17:04:24.161Z,1.50
2019-05-17T17:06:51.045Z,1.70
2019-05-17T17:09:17.840Z,1.80
2019-05-17T17:11:45.794Z,1.30
2019-05-17T17:14:12.738Z,1.80
2019-05-17T17:16:39.518Z,1.37
2019-05-17T17:19:06.376Z,1.40
2019-05-17T17:21:33.216Z,1.20
2019-05-17T17:24:00.063Z,1.40
2019-05-17T17:26:28.748Z,1.30
2019-05-17T17:28:55.597Z,1.60
2019-05-17T17:31:22.437Z,1.20
2019-05-17T17:33:49.377Z,1.30
2019-05-17T17:36:19.222Z,1.30
2019-05-17T17:38:45.032Z,1.50
2019-05-17T17:41:11.817Z,1.00
2019-05-17T17:43:38.642Z,0.98
2019-05-17T17:46:05.608Z,1.30
2019-05-17T17:48:32.448Z,1.30
2019-05-17T17:50:59.874Z,1.22
2019-05-17T17:53:26.804Z,1.30
2019-05-17T17:55:53.589Z,1.35
2019-05-17T17:58:20.589Z,1.20
2019-05-17T18:00:47.621Z,1.47
2019-05-17T18:03:14.464Z,1.07
2019-05-17T18:05:41.401Z,1.57
2019-05-17T18:08:08.341Z,1.25
2019-05-17T18:10:35.557Z,1.40
2019-05-17T18:13:02.401Z,1.57
2019-05-17T18:15:32.799Z,1.10
2019-05-17T18:18:00.032Z,1.30
2019-05-17T18:20:27.265Z,1.30
2019-05-17T18:22:54.180Z,1.40
2019-05-17T18:25:21.021Z,1.10
2019-05-17T18:27:47.816Z,1.20
2019-05-17T18:30:14.875Z,1.20
2019-05-17T18:32:41.757Z,1.45
2019-05-17T18:35:08.645Z,1.40
2019-05-17T18:37:35.697Z,1.37
2019-05-17T18:40:03.734Z,1.22
2019-05-17T18:42:30.783Z,1.40
2019-05-17T18:44:57.573Z,1.40
2019-05-17T18:47:25.605Z,4.53
2019-05-17T18:49:52.440Z,8.20
2019-05-17T18:52:19.392Z,7.83
2019-05-17T18:54:46.322Z,9.50
2019-05-17T18:57:13.157Z,5.53
2019-05-17T18:59:40.124Z,3.00
2019-05-17T19:02:08.853Z,2.00
2019-05-17T19:04:35.716Z,1.92
2019-05-17T19:07:02.553Z,2.20
2019-05-17T19:09:29.341Z,6.95
2019-05-17T19:11:56.221Z,15.35
2019-05-17T19:14:23.056Z,17.95
2019-05-17T19:16:49.972Z,8.80
2019-05-17T19:19:16.736Z,4.10
2019-05-17T19:21:43.599Z,2.20
2019-05-17T19:24:10.381Z,1.70
2019-05-17T19:26:37.328Z,1.50
2019-05-17T19:29:05.311Z,1.55
2019-05-17T19:31:32.249Z,1.40
2019-05-17T19:33:59.088Z,1.90
2019-05-17T19:36:25.931Z,1.52
2019-05-17T19:38:52.721Z,1.62
2019-05-17T19:41:19.619Z,1.70
2019-05-17T19:43:46.433Z,1.60
2019-05-17T19:46:13.218Z,1.80
2019-05-17T19:48:40.118Z,1.80
2019-05-17T19:51:06.897Z,1.98
2019-05-17T19:53:33.953Z,1.80
2019-05-17T19:56:00.848Z,1.80
2019-05-17T19:58:27.633Z,1.98
2019-05-17T20:00:54.454Z,1.70
2019-05-17T20:03:21.235Z,1.80
2019-05-17T20:05:48.070Z,2.00
2019-05-17T20:08:14.888Z,1.80
2019-05-17T20:10:41.739Z,1.80
2019-05-17T20:13:08.578Z,2.22
2019-05-17T20:15:35.462Z,1.90
2019-05-17T20:18:02.374Z,2.02
2019-05-17T20:20:29.165Z,2.10
2019-05-17T20:22:56.133Z,1.80
2019-05-17T20:25:22.992Z,2.20
2019-05-17T20:27:50.448Z,2.20
2019-05-17T20:30:17.624Z,2.20
2019-05-17T20:32:44.566Z,2.10
2019-05-17T20:35:11.732Z,2.42
2019-05-17T20:37:38.557Z,2.33
2019-05-17T20:40:06.560Z,2.20
2019-05-17T20:42:33.347Z,2.50
2019-05-17T20:45:00.724Z,2.50
2019-05-17T20:47:27.507Z,2.10
2019-05-17T20:49:54.357Z,2.77
2019-05-17T20:52:21.250Z,2.70
2019-05-17T20:54:48.135Z,2.30
2019-05-17T20:57:15.037Z,2.70
2019-05-17T20:59:41.827Z,2.40
2019-05-17T21:02:08.690Z,3.00
2019-05-17T21:04:35.721Z,2.77
2019-05-17T21:07:02.614Z,2.40
2019-05-17T21:09:29.615Z,2.35
2019-05-17T21:11:56.417Z,2.50
2019-05-17T21:14:23.258Z,2.40
2019-05-17T21:16:50.061Z,2.30
2019-05-17T21:19:16.897Z,2.77
2019-05-17T21:21:43.738Z,3.63
2019-05-17T21:24:10.693Z,2.70
2019-05-17T21:26:37.529Z,2.40
2019-05-17T21:29:04.364Z,2.40
2019-05-17T21:31:31.192Z,2.42
2019-05-17T21:33:58.025Z,2.90
2019-05-17T21:36:24.957Z,2.62
2019-05-17T21:38:51.737Z,2.43
2019-05-17T21:41:18.572Z,2.50
2019-05-17T21:43:45.461Z,2.70
2019-05-17T21:46:12.299Z,2.90
2019-05-17T21:48:39.095Z,2.50
2019-05-17T21:51:05.941Z,2.80
2019-05-17T21:53:32.721Z,2.70
2019-05-17T21:56:00.376Z,2.77
2019-05-17T21:58:27.193Z,3.05
2019-05-17T22:01:03.716Z,3.02
2019-05-17T22:03:30.537Z,2.90
2019-05-17T22:05:57.318Z,2.90
2019-05-17T22:08:24.138Z,2.90
2019-05-17T22:10:51.717Z,3.60
2019-05-17T22:13:18.553Z,2.80
2019-05-17T22:15:45.332Z,3.00
2019-05-17T22:18:12.172Z,3.20
2019-05-17T22:20:38.954Z,3.02
2019-05-17T22:23:05.793Z,3.30
2019-05-17T22:25:32.624Z,3.00
2019-05-17T22:27:59.413Z,3.40
2019-05-17T22:30:26.235Z,3.22
2019-05-17T22:32:53.019Z,2.80
2019-05-17T22:35:19.861Z,2.90
2019-05-17T22:37:46.648Z,2.60
2019-05-17T22:40:13.485Z,3.20
2019-05-17T22:42:40.266Z,3.00
2019-05-17T22:45:07.306Z,2.80
2019-05-17T22:47:34.095Z,3.00
2019-05-17T22:50:00.931Z,3.00
2019-05-17T22:52:27.713Z,3.13
2019-05-17T22:54:54.545Z,2.80
2019-05-17T22:57:21.369Z,3.02
2019-05-17T22:59:48.162Z,3.20
2019-05-17T23:02:14.993Z,3.62
2019-05-17T23:04:41.820Z,3.60
2019-05-17T23:07:08.977Z,3.30
2019-05-17T23:09:35.757Z,4.10
2019-05-17T23:12:02.541Z,3.33
2019-05-17T23:14:29.377Z,3.92
2019-05-17T23:16:56.224Z,3.80
2019-05-17T23:19:23.081Z,3.52
2019-05-17T23:21:49.861Z,3.50
2019-05-17T23:24:16.644Z,3.50
2019-05-17T23:26:43.469Z,3.80
2019-05-17T23:29:10.306Z,3.60
2019-05-17T23:31:37.085Z,3.40
2019-05-17T23:34:03.973Z,3.90
2019-05-17T23:36:30.756Z,3.70
2019-05-17T23:38:57.601Z,3.20
2019-05-17T23:41:24.391Z,3.90
2019-05-17T23:43:51.224Z,3.25
2019-05-17T23:46:18.058Z,3.60
2019-05-17T23:48:44.853Z,3.62
2019-05-17T23:51:11.688Z,3.50
2019-05-17T23:53:38.473Z,3.58
2019-05-17T23:56:05.304Z,3.42
2019-05-17T23:58:32.100Z,3.40
